Time;durP1;ratioP1;P1;durP2;ratioP2;P2;SDS_P1;SDS_P2;PMS_P1;PMS_P2;Temp;Humidity;BMP_temperature;BMP_pressure;BME280_temperature;BME280_humidity;BME280_pressure;Samples;Min_cycle;Max_cycle;Signal;HPM_P1;HPM_P2
2022/06/02 00:01:18;;;;;;;3.42;3.13;;;;;;;;;;2092711;28;20482;-64
2022/06/02 00:02:56;;;;;;;4.30;3.60;;;;;;;;;;2095409;28;20032;-67
2022/06/02 00:04:29;;;;;;;3.45;3.25;;;;;;;;;;2091236;28;20033;-66
2022/06/02 00:05:51;;;;;;;3.63;3.25;;;;;;;;;;2096757;28;20032;-65
2022/06/02 00:07:39;;;;;;;3.28;3.08;;;;;;;;;;2094782;28;20032;-67
2022/06/02 00:09:00;;;;;;;3.92;3.63;;;;;;;;;;2058107;28;20034;-66
2022/06/02 00:10:22;;;;;;;4.78;3.53;;;;;;;;;;2075813;28;20029;-67
2022/06/02 00:11:41;;;;;;;3.92;3.63;;;;;;;;;;2089760;28;20253;-67
2022/06/02 00:13:00;;;;;;;4.93;3.90;;;;;;;;;;2094678;28;20033;-66
2022/06/02 00:14:38;;;;;;;3.60;3.40;;;;;;;;;;2093873;28;20021;-66
2022/06/02 00:16:00;;;;;;;3.83;3.53;;;;;;;;;;2092518;28;20433;-67
2022/06/02 00:17:22;;;;;;;3.67;3.42;;;;;;;;;;2095182;28;20045;-66
2022/06/02 00:18:49;;;;;;;4.03;3.83;;;;;;;;;;2093341;28;20029;-66
2022/06/02 00:20:12;;;;;;;4.00;3.60;;;;;;;;;;2093827;28;20029;-68
2022/06/02 00:21:41;;;;;;;3.90;3.60;;;;;;;;;;2092768;28;20108;-67
2022/06/02 00:23:19;;;;;;;4.10;3.70;;;;;;;;;;2093973;28;20052;-67
2022/06/02 00:24:49;;;;;;;3.45;3.15;;;;;;;;;;2094294;28;20033;-67
2022/06/02 00:26:11;;;;;;;3.72;3.40;;;;;;;;;;2097869;28;20099;-67
2022/06/02 00:27:42;;;;;;;3.50;3.30;;;;;;;;;;2093179;28;20040;-66
2022/06/02 00:29:24;;;;;;;3.53;3.33;;;;;;;;;;2085509;28;20025;-66
2022/06/02 00:30:56;;;;;;;4.35;3.30;;;;;;;;;;2091628;28;20032;-67
2022/06/02 00:32:34;;;;;;;4.80;3.70;;;;;;;;;;2091413;28;20044;-66
2022/06/02 00:33:59;;;;;;;4.07;3.78;;;;;;;;;;2091991;28;20115;-66
2022/06/02 00:35:33;;;;;;;3.63;3.33;;;;;;;;;;2095876;28;20616;-67
2022/06/02 00:37:13;;;;;;;3.67;3.47;;;;;;;;;;2087429;28;20029;-66
2022/06/02 00:38:36;;;;;;;4.13;3.83;;;;;;;;;;2068527;28;20069;-66
2022/06/02 00:39:56;;;;;;;3.90;3.60;;;;;;;;;;2095028;28;20067;-66
2022/06/02 00:41:33;;;;;;;4.15;3.85;;;;;;;;;;2096665;28;20502;-65
2022/06/02 00:42:58;;;;;;;4.13;3.90;;;;;;;;;;2088845;28;20029;-65
2022/06/02 00:44:35;;;;;;;4.10;3.90;;;;;;;;;;2095158;28;20041;-66
2022/06/02 00:46:08;;;;;;;4.40;4.10;;;;;;;;;;2094172;28;20028;-66
2022/06/02 00:47:35;;;;;;;4.78;4.10;;;;;;;;;;2095039;28;20037;-66
2022/06/02 00:48:55;;;;;;;4.43;4.13;;;;;;;;;;2096057;28;20030;-66
2022/06/02 00:50:19;;;;;;;4.53;4.10;;;;;;;;;;2092429;28;20680;-66
2022/06/02 00:51:51;;;;;;;4.20;3.90;;;;;;;;;;2095659;28;20037;-65
2022/06/02 00:53:14;;;;;;;4.30;4.00;;;;;;;;;;2094879;28;20036;-66
2022/06/02 00:58:31;;;;;;;7.03;4.45;;;;;;;;;;2088645;28;20045;-66
2022/06/02 01:00:02;;;;;;;4.93;4.53;;;;;;;;;;2090510;28;20048;-66
2022/06/02 01:01:26;;;;;;;4.65;4.38;;;;;;;;;;2090000;28;20021;-66
2022/06/02 01:02:53;;;;;;;4.30;4.00;;;;;;;;;;2093681;28;20473;-66
2022/06/02 01:04:15;;;;;;;4.60;4.30;;;;;;;;;;2094380;28;20020;-67
2022/06/02 01:05:54;;;;;;;4.80;4.40;;;;;;;;;;2096007;28;20445;-66
2022/06/02 01:07:28;;;;;;;5.35;5.00;;;;;;;;;;2095466;28;20028;-66
2022/06/02 01:08:50;;;;;;;5.15;4.72;;;;;;;;;;2091102;28;20464;-67
2022/06/02 01:10:16;;;;;;;4.97;4.63;;;;;;;;;;2092683;28;20040;-66
2022/06/02 01:11:40;;;;;;;4.90;4.47;;;;;;;;;;2096388;28;20028;-66
2022/06/02 01:13:15;;;;;;;4.75;4.45;;;;;;;;;;2092300;28;20044;-65
2022/06/02 01:14:41;;;;;;;4.60;4.30;;;;;;;;;;2091320;28;20029;-66
2022/06/02 01:15:59;;;;;;;5.20;4.80;;;;;;;;;;2094125;28;20036;-66
2022/06/02 01:17:18;;;;;;;4.78;4.38;;;;;;;;;;2094634;28;20494;-66
2022/06/02 01:18:54;;;;;;;5.13;4.80;;;;;;;;;;2091621;28;20491;-66
2022/06/02 01:20:30;;;;;;;4.97;4.57;;;;;;;;;;2094267;28;20104;-67
2022/06/02 01:22:01;;;;;;;5.18;4.88;;;;;;;;;;2096449;28;20020;-66
2022/06/02 01:23:45;;;;;;;5.60;5.13;;;;;;;;;;2092548;28;20037;-65
2022/06/02 01:25:15;;;;;;;5.00;4.70;;;;;;;;;;2093871;28;20025;-66
2022/06/02 01:26:53;;;;;;;5.35;4.93;;;;;;;;;;2095475;28;20025;-66
2022/06/02 01:28:12;;;;;;;5.70;5.22;;;;;;;;;;2095740;28;20037;-66
2022/06/02 01:29:40;;;;;;;6.18;5.57;;;;;;;;;;2092644;28;20028;-67
2022/06/02 01:31:18;;;;;;;5.72;5.25;;;;;;;;;;2093060;28;20401;-68
2022/06/02 01:32:47;;;;;;;5.25;4.93;;;;;;;;;;2093993;28;20099;-66
2022/06/02 01:34:06;;;;;;;5.07;4.78;;;;;;;;;;2096385;28;20079;-66
2022/06/02 01:35:35;;;;;;;5.05;4.75;;;;;;;;;;2094268;28;20028;-67
2022/06/02 01:37:04;;;;;;;6.22;5.30;;;;;;;;;;2094898;28;20067;-68
2022/06/02 01:38:31;;;;;;;5.95;5.55;;;;;;;;;;2092420;28;20036;-67
2022/06/02 01:39:59;;;;;;;5.38;5.07;;;;;;;;;;2092154;28;20071;-66
2022/06/02 01:41:37;;;;;;;6.15;5.60;;;;;;;;;;2091840;28;20032;-66
2022/06/02 01:43:05;;;;;;;5.43;5.03;;;;;;;;;;2094055;28;20024;-66
2022/06/02 01:44:24;;;;;;;5.38;4.97;;;;;;;;;;2092554;28;20083;-66
2022/06/02 01:45:46;;;;;;;5.20;4.90;;;;;;;;;;2085584;28;20036;-66
2022/06/02 01:47:05;;;;;;;5.72;5.32;;;;;;;;;;2089467;28;20016;-66
2022/06/02 01:48:31;;;;;;;5.53;5.15;;;;;;;;;;2091747;28;20024;-66
2022/06/02 01:49:56;;;;;;;5.97;5.50;;;;;;;;;;2094618;28;20482;-66
2022/06/02 01:51:34;;;;;;;5.78;5.30;;;;;;;;;;2096960;28;20608;-66
2022/06/02 01:53:02;;;;;;;5.75;5.25;;;;;;;;;;2094260;28;20020;-67
2022/06/02 01:54:30;;;;;;;4.82;4.50;;;;;;;;;;2096263;28;20041;-66
2022/06/02 01:55:52;;;;;;;5.07;4.68;;;;;;;;;;2094170;28;20044;-66
2022/06/02 01:57:20;;;;;;;5.10;4.80;;;;;;;;;;2093551;28;20028;-66
2022/06/02 01:58:39;;;;;;;5.35;4.95;;;;;;;;;;2090473;28;20036;-66
2022/06/02 01:59:58;;;;;;;5.70;5.30;;;;;;;;;;2093549;28;20033;-66
2022/06/02 02:01:27;;;;;;;5.53;5.10;;;;;;;;;;2096299;28;20024;-67
2022/06/02 02:02:55;;;;;;;5.38;5.07;;;;;;;;;;2093251;28;20028;-67
2022/06/02 02:04:20;;;;;;;5.50;5.10;;;;;;;;;;2092464;28;20037;-66
2022/06/02 02:05:48;;;;;;;5.30;4.95;;;;;;;;;;2096468;28;20028;-66
2022/06/02 02:07:11;;;;;;;5.00;4.70;;;;;;;;;;2093744;28;20375;-66
2022/06/02 02:08:42;;;;;;;5.32;5.03;;;;;;;;;;2093693;28;20045;-66
2022/06/02 02:10:16;;;;;;;5.53;4.90;;;;;;;;;;2095928;28;20032;-67
2022/06/02 02:11:56;;;;;;;5.68;5.38;;;;;;;;;;2092887;28;20036;-66
2022/06/02 02:13:28;;;;;;;6.32;5.90;;;;;;;;;;2095264;28;20063;-66
2022/06/02 02:15:00;;;;;;;5.18;4.88;;;;;;;;;;2093113;28;20037;-66
2022/06/02 02:16:23;;;;;;;5.18;4.88;;;;;;;;;;2091769;28;20033;-66
2022/06/02 02:17:51;;;;;;;5.68;5.20;;;;;;;;;;2092798;28;20032;-66
2022/06/02 02:19:18;;;;;;;5.28;4.97;;;;;;;;;;2087222;28;20052;-66
2022/06/02 02:20:36;;;;;;;5.80;5.40;;;;;;;;;;2093961;28;20028;-66
2022/06/02 02:21:55;;;;;;;6.13;5.72;;;;;;;;;;2095686;28;20037;-66
2022/06/02 02:23:40;;;;;;;6.03;5.63;;;;;;;;;;2087692;28;20021;-66
2022/06/02 02:25:01;;;;;;;5.30;4.90;;;;;;;;;;2095767;28;20036;-66
2022/06/02 02:26:32;;;;;;;5.85;5.40;;;;;;;;;;2091372;28;20025;-66
2022/06/02 02:28:03;;;;;;;5.45;5.05;;;;;;;;;;2092711;28;20028;-66
2022/06/02 02:30:00;;;;;;;5.43;5.10;;;;;;;;;;2087657;28;20038;-66
2022/06/02 02:31:25;;;;;;;6.03;5.40;;;;;;;;;;2061942;28;20515;-66
2022/06/02 02:33:01;;;;;;;4.50;4.20;;;;;;;;;;2057933;28;20066;-66
2022/06/02 02:34:26;;;;;;;5.50;5.05;;;;;;;;;;2065051;28;20030;-66
2022/06/02 02:35:53;;;;;;;5.70;5.35;;;;;;;;;;2064966;28;20116;-66
2022/06/02 02:37:27;;;;;;;5.47;5.00;;;;;;;;;;2096928;28;20429;-66
2022/06/02 02:39:01;;;;;;;5.97;5.30;;;;;;;;;;2094939;28;20025;-66
2022/06/02 02:40:32;;;;;;;4.97;4.68;;;;;;;;;;2096788;28;20041;-66
2022/06/02 02:42:11;;;;;;;5.25;4.95;;;;;;;;;;2092262;28;20123;-66
2022/06/02 02:43:49;;;;;;;5.10;4.80;;;;;;;;;;2090676;28;20471;-66
2022/06/02 02:45:25;;;;;;;6.68;4.43;;;;;;;;;;2092010;28;20191;-66
2022/06/02 02:46:55;;;;;;;5.25;4.85;;;;;;;;;;2096778;28;20021;-66
2022/06/02 02:48:33;;;;;;;5.50;5.20;;;;;;;;;;2098689;28;20029;-66
2022/06/02 02:50:10;;;;;;;5.90;5.38;;;;;;;;;;2095512;28;20028;-66
2022/06/02 02:51:37;;;;;;;5.72;5.32;;;;;;;;;;2098068;28;20398;-66
2022/06/02 02:52:59;;;;;;;4.75;4.35;;;;;;;;;;2091097;28;20119;-66
2022/06/02 02:54:28;;;;;;;4.05;3.85;;;;;;;;;;2093999;28;20458;-66
2022/06/02 02:55:58;;;;;;;4.18;3.97;;;;;;;;;;2090725;28;20104;-66
2022/06/02 02:57:24;;;;;;;4.07;3.85;;;;;;;;;;2094644;28;20048;-66
2022/06/02 02:58:45;;;;;;;4.32;4.10;;;;;;;;;;2096690;28;20032;-66
2022/06/02 03:00:16;;;;;;;4.40;3.92;;;;;;;;;;2094457;28;20086;-65
2022/06/02 03:01:42;;;;;;;4.22;3.95;;;;;;;;;;2097751;28;20064;-66
2022/06/02 03:03:22;;;;;;;4.13;3.83;;;;;;;;;;2097855;28;20068;-66
2022/06/02 03:05:05;;;;;;;4.78;4.57;;;;;;;;;;2094605;28;20020;-67
2022/06/02 03:06:26;;;;;;;5.43;4.07;;;;;;;;;;2097194;28;20024;-66
2022/06/02 03:07:45;;;;;;;4.78;4.57;;;;;;;;;;2095379;28;20429;-66
2022/06/02 03:09:28;;;;;;;5.18;4.68;;;;;;;;;;2092956;28;20032;-65
2022/06/02 03:10:50;;;;;;;4.65;4.35;;;;;;;;;;2092921;28;20056;-67
2022/06/02 03:12:20;;;;;;;5.20;4.85;;;;;;;;;;2096002;28;20485;-66
2022/06/02 03:13:43;;;;;;;4.50;4.20;;;;;;;;;;2095574;28;20033;-66
2022/06/02 03:15:16;;;;;;;5.22;4.82;;;;;;;;;;2093105;28;20490;-66
2022/06/02 03:16:37;;;;;;;4.90;4.50;;;;;;;;;;2094757;28;20029;-67
2022/06/02 03:18:15;;;;;;;4.93;4.60;;;;;;;;;;2091986;28;20033;-66
2022/06/02 03:19:49;;;;;;;5.13;4.82;;;;;;;;;;2090043;28;20048;-65
2022/06/02 03:21:27;;;;;;;5.25;4.75;;;;;;;;;;2091454;28;20064;-66
2022/06/02 03:22:49;;;;;;;5.22;4.93;;;;;;;;;;2092231;28;20444;-67
2022/06/02 03:24:27;;;;;;;5.80;5.47;;;;;;;;;;2091081;28;20029;-66
2022/06/02 03:25:55;;;;;;;5.70;5.22;;;;;;;;;;2093381;28;20029;-66
2022/06/02 03:27:21;;;;;;;5.60;5.20;;;;;;;;;;2090937;28;20024;-66
2022/06/02 03:28:52;;;;;;;8.50;5.60;;;;;;;;;;2090948;28;20111;-66
2022/06/02 03:30:11;;;;;;;7.47;5.22;;;;;;;;;;2090262;28;20036;-66
2022/06/02 03:31:33;;;;;;;5.60;5.20;;;;;;;;;;2089430;28;20423;-66
2022/06/02 03:33:06;;;;;;;5.20;4.90;;;;;;;;;;2089976;28;20048;-66
2022/06/02 03:34:34;;;;;;;5.25;4.90;;;;;;;;;;2091168;28;20596;-66
2022/06/02 03:36:12;;;;;;;5.90;5.40;;;;;;;;;;2090688;28;20442;-66
2022/06/02 03:37:40;;;;;;;5.43;5.03;;;;;;;;;;2089620;28;20025;-65
2022/06/02 03:39:08;;;;;;;5.70;5.20;;;;;;;;;;2089579;28;20029;-67
2022/06/02 03:40:30;;;;;;;5.20;4.90;;;;;;;;;;2089304;28;20025;-66
2022/06/02 03:42:08;;;;;;;5.30;5.00;;;;;;;;;;2090982;28;20047;-65
2022/06/02 03:43:39;;;;;;;5.82;5.43;;;;;;;;;;2092223;28;20025;-66
2022/06/02 03:45:04;;;;;;;5.38;4.90;;;;;;;;;;2095223;28;20029;-66
2022/06/02 03:46:43;;;;;;;5.38;4.97;;;;;;;;;;2090543;28;20032;-66
2022/06/02 03:48:19;;;;;;;5.55;5.20;;;;;;;;;;2058961;28;20039;-65
2022/06/02 03:49:53;;;;;;;5.65;5.25;;;;;;;;;;2089979;28;20394;-66
2022/06/02 03:51:12;;;;;;;6.50;4.93;;;;;;;;;;2090684;28;20036;-65
2022/06/02 03:52:40;;;;;;;5.60;5.20;;;;;;;;;;2090950;28;20479;-66
2022/06/02 03:54:10;;;;;;;4.95;4.65;;;;;;;;;;2090825;28;20033;-66
2022/06/02 03:55:47;;;;;;;4.88;4.57;;;;;;;;;;2091033;28;20029;-66
2022/06/02 03:57:26;;;;;;;4.68;4.38;;;;;;;;;;2088443;28;20029;-66
2022/06/02 03:58:45;;;;;;;5.13;4.78;;;;;;;;;;2090588;28;20021;-66
2022/06/02 04:00:16;;;;;;;5.10;4.68;;;;;;;;;;2090318;28;20025;-66
2022/06/02 04:01:37;;;;;;;4.70;4.30;;;;;;;;;;2090850;28;20024;-66
2022/06/02 04:02:59;;;;;;;5.07;4.78;;;;;;;;;;2092576;28;22011;-65
2022/06/02 04:04:37;;;;;;;5.05;4.65;;;;;;;;;;2093173;28;20020;-66
2022/06/02 04:05:59;;;;;;;5.07;4.68;;;;;;;;;;2089531;28;20029;-66
2022/06/02 04:07:18;;;;;;;6.03;4.68;;;;;;;;;;2090133;28;20033;-65
2022/06/02 04:09:00;;;;;;;5.25;4.93;;;;;;;;;;2090740;28;20021;-66
2022/06/02 04:10:19;;;;;;;5.22;4.70;;;;;;;;;;2088158;28;20036;-65
2022/06/02 04:13:49;;;;;;;4.97;4.57;;;;;;;;;;2090509;28;20167;-66
2022/06/02 04:15:13;;;;;;;4.50;4.10;;;;;;;;;;2089479;28;20064;-65
2022/06/02 04:16:48;;;;;;;4.53;4.07;;;;;;;;;;2089584;28;20489;-66
2022/06/02 04:18:21;;;;;;;4.50;4.13;;;;;;;;;;2094150;28;20029;-67
2022/06/02 04:21:46;;;;;;;4.55;4.25;;;;;;;;;;2087030;28;20041;-67
2022/06/02 04:23:23;;;;;;;5.05;4.57;;;;;;;;;;2086345;28;20037;-66
2022/06/02 04:24:45;;;;;;;4.97;4.68;;;;;;;;;;2091391;28;20032;-67
2022/06/02 04:26:23;;;;;;;6.63;4.70;;;;;;;;;;2092023;28;20035;-68
2022/06/02 04:28:00;;;;;;;5.13;4.65;;;;;;;;;;2092275;28;20487;-66
2022/06/02 04:29:22;;;;;;;5.72;4.40;;;;;;;;;;2095857;28;20064;-67
2022/06/02 04:30:52;;;;;;;4.88;4.50;;;;;;;;;;2091297;28;20029;-66
2022/06/02 04:32:11;;;;;;;5.28;4.97;;;;;;;;;;2096253;28;20029;-66
2022/06/02 04:33:30;;;;;;;5.05;4.65;;;;;;;;;;2092252;28;20033;-66
2022/06/02 04:34:54;;;;;;;4.90;4.50;;;;;;;;;;2090539;28;20033;-66
2022/06/02 04:36:19;;;;;;;5.18;4.78;;;;;;;;;;2088714;28;20049;-65
2022/06/02 04:37:42;;;;;;;5.20;4.80;;;;;;;;;;2091706;28;20519;-67
2022/06/02 04:39:07;;;;;;;5.80;5.22;;;;;;;;;;2093222;28;20037;-66
2022/06/02 04:40:39;;;;;;;5.35;4.90;;;;;;;;;;2093818;28;20028;-65
2022/06/02 04:42:05;;;;;;;5.30;4.80;;;;;;;;;;2097039;28;20395;-65
2022/06/02 04:43:38;;;;;;;5.55;5.05;;;;;;;;;;2097092;28;20032;-65
2022/06/02 04:44:57;;;;;;;5.47;5.18;;;;;;;;;;2091500;28;20021;-66
2022/06/02 04:46:24;;;;;;;5.43;5.13;;;;;;;;;;2092541;28;20025;-65
2022/06/02 04:47:56;;;;;;;5.68;4.93;;;;;;;;;;2096885;28;20060;-66
2022/06/02 04:49:14;;;;;;;5.30;5.00;;;;;;;;;;2094743;28;20020;-66
2022/06/02 04:50:52;;;;;;;6.05;5.45;;;;;;;;;;2094117;28;20040;-66
2022/06/02 04:52:11;;;;;;;5.28;4.80;;;;;;;;;;2094962;28;20032;-66
2022/06/02 04:53:34;;;;;;;4.40;4.05;;;;;;;;;;2090698;28;20512;-66
2022/06/02 04:54:53;;;;;;;;;;;;;;;;;;2096379;28;20029;-66
2022/06/02 04:56:30;;;;;;;6.18;5.65;;;;;;;;;;2094927;28;19905;-67
2022/06/02 04:58:25;;;;;;;5.68;5.28;;;;;;;;;;2096575;28;20394;-67
2022/06/02 05:00:01;;;;;;;5.70;5.30;;;;;;;;;;2074591;28;20037;-66
2022/06/02 05:01:32;;;;;;;5.90;5.50;;;;;;;;;;2072809;28;20029;-68
2022/06/02 05:02:52;;;;;;;6.45;5.93;;;;;;;;;;2091002;28;20177;-68
2022/06/02 05:04:33;;;;;;;6.25;5.85;;;;;;;;;;2092825;28;20025;-67
2022/06/02 05:06:15;;;;;;;6.95;6.13;;;;;;;;;;2093698;28;20032;-64
2022/06/02 05:07:43;;;;;;;6.60;5.93;;;;;;;;;;2092951;28;20037;-66
2022/06/02 05:09:09;;;;;;;6.05;5.57;;;;;;;;;;2093749;28;20060;-65
2022/06/02 05:10:29;;;;;;;14.20;7.78;;;;;;;;;;2094306;28;20044;-65
2022/06/02 05:11:57;;;;;;;7.95;7.32;;;;;;;;;;2093957;28;20057;-66
2022/06/02 05:13:19;;;;;;;7.70;6.93;;;;;;;;;;2096209;28;20112;-66
2022/06/02 05:14:45;;;;;;;7.40;6.47;;;;;;;;;;2096122;28;20084;-65
2022/06/02 05:16:18;;;;;;;8.32;7.47;;;;;;;;;;2094207;28;20297;-65
2022/06/02 05:17:40;;;;;;;8.52;7.72;;;;;;;;;;2094591;28;20029;-65
2022/06/02 05:19:17;;;;;;;7.70;7.00;;;;;;;;;;2095101;28;20052;-65
2022/06/02 05:20:43;;;;;;;9.02;8.23;;;;;;;;;;2093833;28;20033;-65
2022/06/02 05:22:22;;;;;;;9.70;8.75;;;;;;;;;;2093757;28;20547;-65
2022/06/02 05:23:47;;;;;;;11.35;10.05;;;;;;;;;;2093474;28;20493;-64
2022/06/02 05:25:18;;;;;;;9.52;8.68;;;;;;;;;;2093021;28;20020;-64
2022/06/02 05:26:43;;;;;;;12.93;9.60;;;;;;;;;;2091000;28;20108;-65
2022/06/02 05:28:05;;;;;;;16.17;9.30;;;;;;;;;;2093671;28;20032;-65
2022/06/02 05:29:44;;;;;;;9.68;8.43;;;;;;;;;;2094666;28;20526;-65
2022/06/02 05:31:12;;;;;;;11.15;8.85;;;;;;;;;;2094092;28;20040;-65
2022/06/02 05:32:43;;;;;;;12.85;9.80;;;;;;;;;;2093742;28;20108;-66
2022/06/02 05:34:08;;;;;;;11.00;9.88;;;;;;;;;;2094024;28;20036;-66
2022/06/02 05:35:27;;;;;;;10.38;9.38;;;;;;;;;;2095264;28;20028;-66
2022/06/02 05:36:46;;;;;;;12.48;11.27;;;;;;;;;;2088932;28;20068;-65
2022/06/02 05:38:11;;;;;;;11.80;10.68;;;;;;;;;;2082422;28;20064;-65
2022/06/02 05:39:49;;;;;;;13.57;12.00;;;;;;;;;;2090542;28;20150;-65
2022/06/02 05:41:11;;;;;;;13.77;11.13;;;;;;;;;;2092637;28;20036;-65
2022/06/02 05:42:30;;;;;;;13.15;11.77;;;;;;;;;;2093587;28;20028;-65
2022/06/02 05:43:55;;;;;;;13.88;12.20;;;;;;;;;;2096186;28;20033;-65
2022/06/02 05:45:14;;;;;;;13.85;12.48;;;;;;;;;;2095376;28;20482;-65
2022/06/02 05:46:51;;;;;;;15.20;12.10;;;;;;;;;;2094917;28;20045;-65
2022/06/02 05:48:29;;;;;;;14.65;12.68;;;;;;;;;;2090155;28;20045;-66
2022/06/02 05:49:54;;;;;;;14.13;12.30;;;;;;;;;;2093460;28;20078;-66
2022/06/02 05:51:20;;;;;;;12.57;11.30;;;;;;;;;;2096111;28;20142;-65
2022/06/02 05:52:39;;;;;;;14.57;13.05;;;;;;;;;;2093018;28;20040;-65
2022/06/02 05:54:25;;;;;;;14.38;12.02;;;;;;;;;;2094590;28;20449;-65
2022/06/02 05:55:46;;;;;;;14.07;12.68;;;;;;;;;;2080727;28;20052;-65
2022/06/02 05:57:16;;;;;;;11.98;10.90;;;;;;;;;;2093009;28;20104;-65
2022/06/02 05:58:51;;;;;;;13.65;12.35;;;;;;;;;;2096303;28;20510;-65
2022/06/02 06:00:25;;;;;;;17.65;12.70;;;;;;;;;;2092069;28;20037;-64
2022/06/02 06:02:14;;;;;;;13.68;12.00;;;;;;;;;;2090729;28;20441;-65
2022/06/02 06:03:52;;;;;;;15.02;13.05;;;;;;;;;;2095356;28;20115;-66
2022/06/02 06:05:37;;;;;;;17.65;12.70;;;;;;;;;;2095043;28;20580;-65
2022/06/02 06:07:25;;;;;;;16.10;12.77;;;;;;;;;;2096401;28;20166;-65
2022/06/02 06:08:50;;;;;;;17.48;12.10;;;;;;;;;;2095469;28;20399;-65
2022/06/02 06:10:12;;;;;;;16.40;13.80;;;;;;;;;;2095981;28;20119;-64
2022/06/02 06:11:31;;;;;;;15.25;12.13;;;;;;;;;;2095993;28;20036;-64
2022/06/02 06:12:56;;;;;;;15.57;13.88;;;;;;;;;;2095575;28;20041;-65
2022/06/02 06:14:25;;;;;;;17.10;13.15;;;;;;;;;;2096270;28;20103;-65
2022/06/02 06:16:04;;;;;;;17.10;14.13;;;;;;;;;;2095672;28;20033;-64
2022/06/02 06:17:26;;;;;;;17.77;13.88;;;;;;;;;;2094322;28;20033;-64
2022/06/02 06:18:52;;;;;;;17.77;14.30;;;;;;;;;;2094534;28;20021;-64
2022/06/02 06:20:27;;;;;;;15.57;13.77;;;;;;;;;;2095478;28;20301;-65
2022/06/02 06:21:57;;;;;;;17.85;14.50;;;;;;;;;;2095704;28;20032;-65
2022/06/02 06:23:16;;;;;;;14.70;13.25;;;;;;;;;;2091474;28;20045;-65
2022/06/02 06:24:44;;;;;;;15.35;13.75;;;;;;;;;;2090556;28;20383;-66
2022/06/02 06:26:09;;;;;;;14.65;12.48;;;;;;;;;;2096198;28;20036;-64
2022/06/02 06:27:31;;;;;;;17.50;13.27;;;;;;;;;;2095762;28;20474;-66
2022/06/02 06:29:09;;;;;;;16.20;11.52;;;;;;;;;;2096893;28;20475;-65
2022/06/02 06:30:44;;;;;;;19.25;13.57;;;;;;;;;;2096594;28;20037;-65
2022/06/02 06:32:16;;;;;;;16.55;12.93;;;;;;;;;;2095673;28;20486;-65
2022/06/02 06:33:53;;;;;;;18.05;13.15;;;;;;;;;;2095000;28;20048;-65
2022/06/02 06:35:16;;;;;;;16.63;14.57;;;;;;;;;;2095094;28;20482;-65
2022/06/02 06:37:01;;;;;;;15.57;13.68;;;;;;;;;;2095984;28;20041;-66
2022/06/02 06:38:38;;;;;;;18.75;14.20;;;;;;;;;;2099888;28;20417;-65
2022/06/02 06:40:16;;;;;;;19.50;14.18;;;;;;;;;;2095405;28;20066;-65
2022/06/02 06:41:59;;;;;;;16.48;14.55;;;;;;;;;;2096009;28;20408;-64
2022/06/02 06:43:33;;;;;;;18.80;14.57;;;;;;;;;;2093479;28;20398;-64
2022/06/02 06:44:56;;;;;;;15.95;14.25;;;;;;;;;;2095338;28;20033;-65
2022/06/02 06:46:38;;;;;;;17.10;14.10;;;;;;;;;;2096597;28;20421;-66
2022/06/02 06:48:00;;;;;;;16.42;13.60;;;;;;;;;;2093784;28;20502;-65
2022/06/02 06:49:24;;;;;;;18.48;14.85;;;;;;;;;;2095694;28;20029;-65
2022/06/02 06:51:09;;;;;;;16.83;14.93;;;;;;;;;;2094933;28;20155;-64
2022/06/02 06:52:43;;;;;;;16.52;12.50;;;;;;;;;;2094997;28;20032;-65
2022/06/02 06:54:09;;;;;;;15.73;13.85;;;;;;;;;;2096245;28;20037;-65
2022/06/02 06:55:35;;;;;;;18.58;13.60;;;;;;;;;;2094931;28;20471;-64
2022/06/02 06:57:00;;;;;;;21.98;13.90;;;;;;;;;;2094509;28;20028;-65
2022/06/02 06:58:37;;;;;;;16.83;12.75;;;;;;;;;;2098844;28;20032;-65
2022/06/02 07:00:16;;;;;;;18.50;14.05;;;;;;;;;;2096524;28;20489;-66
2022/06/02 07:01:54;;;;;;;17.38;13.32;;;;;;;;;;2095764;28;20041;-66
2022/06/02 07:03:13;;;;;;;18.35;13.48;;;;;;;;;;2092842;28;20096;-65
2022/06/02 07:04:52;;;;;;;21.83;13.90;;;;;;;;;;2096191;28;20025;-65
2022/06/02 07:06:19;;;;;;;17.48;13.05;;;;;;;;;;2096691;28;20468;-65
2022/06/02 07:07:58;;;;;;;18.10;12.65;;;;;;;;;;2095133;28;20091;-64
2022/06/02 07:09:29;;;;;;;14.60;12.82;;;;;;;;;;2096096;28;20052;-64
2022/06/02 07:10:54;;;;;;;13.63;10.55;;;;;;;;;;2096470;28;20044;-66
2022/06/02 07:13:58;;;;;;;15.50;13.68;;;;;;;;;;2093287;28;20255;-66
2022/06/02 07:15:20;;;;;;;18.50;14.55;;;;;;;;;;2095879;28;20021;-65
2022/06/02 07:16:46;;;;;;;17.20;12.45;;;;;;;;;;2095441;28;20112;-65
2022/06/02 07:18:13;;;;;;;19.75;14.40;;;;;;;;;;2095590;28;20478;-66
2022/06/02 07:19:36;;;;;;;18.95;14.40;;;;;;;;;;2095767;28;20084;-65
2022/06/02 07:21:08;;;;;;;21.25;16.08;;;;;;;;;;2093703;28;20041;-65
2022/06/02 07:22:36;;;;;;;19.98;15.35;;;;;;;;;;2095207;28;20067;-65
2022/06/02 07:24:04;;;;;;;18.42;15.43;;;;;;;;;;2095611;28;20032;-66
2022/06/02 07:25:41;;;;;;;19.50;15.77;;;;;;;;;;2096811;28;20028;-61
2022/06/02 07:27:20;;;;;;;18.40;14.80;;;;;;;;;;2095212;28;20056;-65
2022/06/02 07:28:39;;;;;;;16.05;14.40;;;;;;;;;;2096793;28;20032;-67
2022/06/02 07:30:17;;;;;;;17.25;14.23;;;;;;;;;;2096490;28;20024;-68
2022/06/02 07:31:55;;;;;;;17.92;14.95;;;;;;;;;;2097454;28;20514;-61
2022/06/02 07:33:33;;;;;;;16.00;14.40;;;;;;;;;;2097582;28;20036;-60
2022/06/02 07:35:13;;;;;;;15.50;13.90;;;;;;;;;;2097429;28;20029;-58
2022/06/02 07:36:40;;;;;;;14.27;12.45;;;;;;;;;;2093389;28;20030;-59
2022/06/02 07:38:18;;;;;;;18.50;13.20;;;;;;;;;;2095051;28;20020;-59
2022/06/02 07:39:51;;;;;;;16.20;14.48;;;;;;;;;;2096222;28;20414;-60
2022/06/02 07:41:16;;;;;;;15.63;14.02;;;;;;;;;;2094960;28;20478;-58
2022/06/02 07:42:54;;;;;;;14.43;12.85;;;;;;;;;;2096568;28;20025;-67
2022/06/02 07:44:13;;;;;;;15.50;13.43;;;;;;;;;;2093892;28;20033;-67
2022/06/02 07:45:37;;;;;;;15.98;14.30;;;;;;;;;;2096755;28;20044;-67
2022/06/02 07:47:01;;;;;;;15.40;12.73;;;;;;;;;;2093510;28;20036;-66
2022/06/02 07:48:39;;;;;;;12.52;10.68;;;;;;;;;;2095390;28;20029;-66
2022/06/02 07:50:17;;;;;;;15.50;10.20;;;;;;;;;;2097391;28;20108;-67
2022/06/02 07:51:59;;;;;;;19.10;13.73;;;;;;;;;;2096880;28;20028;-65
2022/06/02 07:53:28;;;;;;;14.95;13.10;;;;;;;;;;2072784;28;20428;-67
2022/06/02 07:54:52;;;;;;;17.70;13.88;;;;;;;;;;2095985;28;20071;-66
2022/06/02 07:56:14;;;;;;;19.80;15.80;;;;;;;;;;2095584;28;20028;-66
2022/06/02 07:57:52;;;;;;;13.95;10.25;;;;;;;;;;2097020;28;20021;-65
2022/06/02 07:59:20;;;;;;;17.17;12.55;;;;;;;;;;2094739;28;20040;-65
2022/06/02 08:00:52;;;;;;;19.65;13.82;;;;;;;;;;2096055;28;20497;-65
2022/06/02 08:02:22;;;;;;;16.40;12.93;;;;;;;;;;2095180;28;20028;-66
2022/06/02 08:03:40;;;;;;;20.35;14.25;;;;;;;;;;2095110;28;20390;-68
2022/06/02 08:05:11;;;;;;;17.23;12.85;;;;;;;;;;2095867;28;20451;-68
2022/06/02 08:06:47;;;;;;;16.38;14.48;;;;;;;;;;2097409;28;20037;-67
2022/06/02 08:08:15;;;;;;;17.58;14.27;;;;;;;;;;2097439;28;20111;-67
2022/06/02 08:09:38;;;;;;;19.75;15.80;;;;;;;;;;2095651;28;20062;-66
2022/06/02 08:10:59;;;;;;;21.13;15.15;;;;;;;;;;2097924;28;20084;-66
2022/06/02 08:12:21;;;;;;;18.00;12.60;;;;;;;;;;2097670;28;20490;-66
2022/06/02 08:13:53;;;;;;;19.25;14.10;;;;;;;;;;2095496;28;20234;-66
2022/06/02 08:15:12;;;;;;;19.13;13.32;;;;;;;;;;2094062;28;20025;-66
2022/06/02 08:16:31;;;;;;;17.60;13.10;;;;;;;;;;2097149;28;20025;-66
2022/06/02 08:17:56;;;;;;;21.98;14.95;;;;;;;;;;2097448;28;20028;-66
2022/06/02 08:19:29;;;;;;;20.40;16.77;;;;;;;;;;2098091;28;20074;-66
2022/06/02 08:20:51;;;;;;;20.75;15.88;;;;;;;;;;2097648;28;20036;-66
2022/06/02 08:22:17;;;;;;;13.38;10.30;;;;;;;;;;2096735;28;20021;-66
2022/06/02 08:23:45;;;;;;;21.90;16.77;;;;;;;;;;2096163;28;20041;-67
2022/06/02 08:25:16;;;;;;;23.80;15.20;;;;;;;;;;2095747;28;20498;-67
2022/06/02 08:26:40;;;;;;;20.98;12.27;;;;;;;;;;2095636;28;20672;-67
2022/06/02 08:28:02;;;;;;;21.90;14.32;;;;;;;;;;2095901;28;20552;-67
2022/06/02 08:29:25;;;;;;;25.25;16.88;;;;;;;;;;2097684;28;20032;-66
2022/06/02 08:30:48;;;;;;;17.77;12.27;;;;;;;;;;2098106;28;20032;-67
2022/06/02 08:32:07;;;;;;;16.13;12.25;;;;;;;;;;2097066;28;20040;-68
2022/06/02 08:33:28;;;;;;;23.65;15.85;;;;;;;;;;2096861;28;20048;-65
2022/06/02 08:35:06;;;;;;;18.60;13.30;;;;;;;;;;2095144;28;20600;-61
2022/06/02 08:36:28;;;;;;;24.95;16.08;;;;;;;;;;2095454;28;20025;-68
2022/06/02 08:38:03;;;;;;;23.33;16.88;;;;;;;;;;2096089;28;20103;-69
2022/06/02 08:39:34;;;;;;;23.75;16.33;;;;;;;;;;2097166;28;20028;-68
2022/06/02 08:41:28;;;;;;;24.27;17.15;;;;;;;;;;2096346;28;20083;-68
2022/06/02 08:42:46;;;;;;;22.33;16.15;;;;;;;;;;2094909;28;20112;-67
2022/06/02 08:44:18;;;;;;;25.48;17.00;;;;;;;;;;2097156;28;20041;-68
2022/06/02 08:45:52;;;;;;;21.85;16.75;;;;;;;;;;2094802;28;20056;-68
2022/06/02 08:47:27;;;;;;;18.65;14.45;;;;;;;;;;2096520;28;20115;-68
2022/06/02 08:49:01;;;;;;;21.13;15.63;;;;;;;;;;2096675;28;20033;-67
2022/06/02 08:50:37;;;;;;;19.95;15.98;;;;;;;;;;2095461;28;20036;-68
2022/06/02 08:52:16;;;;;;;21.83;15.88;;;;;;;;;;2097083;28;20033;-67
2022/06/02 08:53:53;;;;;;;21.85;17.55;;;;;;;;;;2070476;28;20037;-67
2022/06/02 08:55:20;;;;;;;23.63;17.67;;;;;;;;;;2094732;28;20098;-67
2022/06/02 08:56:57;;;;;;;22.60;15.98;;;;;;;;;;2096471;28;20064;-66
2022/06/02 08:58:28;;;;;;;21.52;15.40;;;;;;;;;;2092508;28;20397;-67
2022/06/02 09:00:06;;;;;;;24.65;15.50;;;;;;;;;;2096067;28;20033;-66